Time;durP1;ratioP1;P1;durP2;ratioP2;P2;SDS_P1;SDS_P2;PMS_P1;PMS_P2;Temp;Humidity;BMP_temperature;BMP_pressure;BME280_temperature;BME280_humidity;BME280_pressure;Samples;Min_cycle;Max_cycle;Signal;HPM_P1;HPM_P2
2022/09/29 00:01:46;;;;;;;;;;;24.20;49.00;;;;;;1530582;75;683;-60
2022/09/29 00:03:48;;;;;;;;;;;24.20;49.00;;;;;;1536663;75;652;-61
2022/09/29 00:05:50;;;;;;;;;;;24.20;49.00;;;;;;1542298;75;1066;-59
2022/09/29 00:07:52;;;;;;;;;;;24.20;49.00;;;;;;1519901;75;683;-61
2022/09/29 00:09:54;;;;;;;;;;;24.10;49.00;;;;;;1523152;75;864;-59
2022/09/29 00:11:56;;;;;;;;;;;24.20;49.00;;;;;;1527430;75;777;-60
2022/09/29 00:13:58;;;;;;;;;;;24.10;49.00;;;;;;1526903;75;1948;-60
2022/09/29 00:16:00;;;;;;;;;;;24.00;48.90;;;;;;1541095;75;1117;-61
2022/09/29 00:18:03;;;;;;;;;;;24.00;48.90;;;;;;1525935;75;743;-57
2022/09/29 00:20:05;;;;;;;;;;;24.10;49.10;;;;;;1528928;76;690;-58
2022/09/29 00:22:07;;;;;;;;;;;24.00;49.00;;;;;;1537916;75;781;-61
2022/09/29 00:24:09;;;;;;;;;;;24.00;49.10;;;;;;1532524;75;1142;-58
2022/09/29 00:26:12;;;;;;;;;;;24.00;49.00;;;;;;1530935;75;710;-59
2022/09/29 00:28:14;;;;;;;;;;;24.00;49.00;;;;;;1532735;75;645;-59
2022/09/29 00:30:16;;;;;;;;;;;24.10;49.20;;;;;;1536528;75;748;-58
2022/09/29 00:32:17;;;;;;;;;;;24.10;49.10;;;;;;1537919;75;712;-60
2022/09/29 00:34:19;;;;;;;;;;;24.00;49.00;;;;;;1528028;75;1952;-60
2022/09/29 00:36:21;;;;;;;;;;;24.00;49.00;;;;;;1531190;75;720;-59
2022/09/29 00:38:23;;;;;;;;;;;24.10;49.20;;;;;;1531857;75;750;-60
2022/09/29 00:40:25;;;;;;;;;;;24.00;49.00;;;;;;1536530;75;697;-60
2022/09/29 00:42:27;;;;;;;;;;;24.00;49.00;;;;;;1533629;75;741;-58
2022/09/29 00:44:47;;;;;;;;;;;24.10;49.20;;;;;;1527356;77;1110;-61
2022/09/29 00:46:51;;;;;;;;;;;24.20;49.20;;;;;;1536419;75;767;-60
2022/09/29 00:48:54;;;;;;;;;;;24.10;49.20;;;;;;1515717;75;690;-60
2022/09/29 00:50:56;;;;;;;;;;;24.10;49.10;;;;;;1533776;76;701;-60
2022/09/29 00:52:59;;;;;;;;;;;24.20;49.20;;;;;;1534265;75;672;-59
2022/09/29 00:55:03;;;;;;;;;;;24.10;49.20;;;;;;1534294;75;1944;-60
2022/09/29 00:57:05;;;;;;;;;;;24.00;49.10;;;;;;1536917;75;1801;-60
2022/09/29 00:59:08;;;;;;;;;;;24.00;49.00;;;;;;1528850;75;763;-60
2022/09/29 01:01:11;;;;;;;;;;;24.00;49.10;;;;;;1537866;75;730;-58
2022/09/29 01:03:14;;;;;;;;;;;24.10;49.20;;;;;;1538239;75;711;-60
2022/09/29 01:05:17;;;;;;;;;;;24.00;49.20;;;;;;1537714;75;1134;-58
2022/09/29 01:07:22;;;;;;;;;;;24.00;49.20;;;;;;1529099;75;906;-56
2022/09/29 01:09:28;;;;;;;;;;;24.00;49.20;;;;;;1517777;75;1550;-58
2022/09/29 01:11:30;;;;;;;;;;;23.90;49.30;;;;;;1533073;75;653;-60
2022/09/29 01:13:33;;;;;;;;;;;23.90;49.30;;;;;;1532409;75;668;-59
2022/09/29 01:15:35;;;;;;;;;;;23.90;49.30;;;;;;1536554;75;1944;-59
2022/09/29 01:17:37;;;;;;;;;;;23.90;49.30;;;;;;1536238;75;703;-58
2022/09/29 01:19:40;;;;;;;;;;;24.00;49.30;;;;;;1535244;75;656;-59
2022/09/29 01:21:44;;;;;;;;;;;24.00;49.20;;;;;;1530241;75;659;-60
2022/09/29 01:23:50;;;;;;;;;;;24.00;49.30;;;;;;1532655;75;1562;-57
2022/09/29 01:26:03;;;;;;;;;;;24.00;49.30;;;;;;1534309;77;1138;-56
2022/09/29 01:28:06;;;;;;;;;;;23.90;49.30;;;;;;1536827;75;660;-60
2022/09/29 01:30:13;;;;;;;;;;;24.00;49.20;;;;;;1529045;75;649;-59
2022/09/29 01:32:22;;;;;;;;;;;23.90;49.30;;;;;;1529489;75;1792;-59
2022/09/29 01:34:29;;;;;;;;;;;23.90;49.30;;;;;;1524096;75;1963;-59
2022/09/29 01:36:49;;;;;;;;;;;23.80;49.20;;;;;;1534477;75;1456;-60
2022/09/29 01:38:55;;;;;;;;;;;23.90;49.40;;;;;;1518147;77;1634;-60
2022/09/29 01:40:58;;;;;;;;;;;23.80;49.30;;;;;;1539774;75;683;-59
2022/09/29 01:43:11;;;;;;;;;;;23.90;49.40;;;;;;1531508;75;1961;-60
2022/09/29 01:45:26;;;;;;;;;;;23.90;49.40;;;;;;1529516;75;1159;-60
2022/09/29 01:47:29;;;;;;;;;;;23.90;49.40;;;;;;1524813;75;841;-61
2022/09/29 01:49:31;;;;;;;;;;;23.90;49.40;;;;;;1520901;75;713;-60
2022/09/29 01:51:47;;;;;;;;;;;23.90;49.40;;;;;;1537473;76;1614;-59
2022/09/29 01:53:50;;;;;;;;;;;23.80;49.30;;;;;;1534295;75;694;-60
2022/09/29 01:55:53;;;;;;;;;;;23.80;49.40;;;;;;1529341;75;1969;-61
2022/09/29 01:58:05;;;;;;;;;;;23.90;49.50;;;;;;1525950;75;699;-59
2022/09/29 02:00:09;;;;;;;;;;;23.90;49.50;;;;;;1528280;75;686;-61
2022/09/29 02:02:12;;;;;;;;;;;23.90;49.60;;;;;;1537432;75;667;-61
2022/09/29 02:04:16;;;;;;;;;;;23.90;49.60;;;;;;1519715;75;1572;-61
2022/09/29 02:06:19;;;;;;;;;;;23.90;49.60;;;;;;1529460;75;1676;-61
2022/09/29 02:08:37;;;;;;;;;;;23.80;49.50;;;;;;1526107;75;679;-60
2022/09/29 02:10:41;;;;;;;;;;;23.80;49.50;;;;;;1527746;75;682;-59
2022/09/29 02:12:43;;;;;;;;;;;23.90;49.60;;;;;;1531263;75;2107;-59
2022/09/29 02:14:46;;;;;;;;;;;23.80;49.60;;;;;;1536287;75;1932;-60
2022/09/29 02:16:48;;;;;;;;;;;23.80;49.60;;;;;;1520990;75;720;-59
2022/09/29 02:18:52;;;;;;;;;;;23.80;49.60;;;;;;1525249;75;698;-61
2022/09/29 02:20:53;;;;;;;;;;;23.80;49.60;;;;;;1529903;75;1605;-59
2022/09/29 02:22:55;;;;;;;;;;;23.90;49.70;;;;;;1526608;75;748;-61
2022/09/29 02:25:00;;;;;;;;;;;23.90;49.60;;;;;;1523625;75;1149;-61
2022/09/29 02:27:02;;;;;;;;;;;23.90;49.50;;;;;;1533117;75;798;-61
2022/09/29 02:29:04;;;;;;;;;;;24.00;49.40;;;;;;1545796;75;680;-60
2022/09/29 02:31:06;;;;;;;;;;;24.00;49.30;;;;;;1541391;75;670;-60
2022/09/29 02:33:21;;;;;;;;;;;24.10;49.30;;;;;;1527428;75;695;-60
2022/09/29 02:35:23;;;;;;;;;;;24.10;49.20;;;;;;1527126;75;1945;-59
2022/09/29 02:37:29;;;;;;;;;;;24.10;49.20;;;;;;1531481;75;771;-60
2022/09/29 02:39:36;;;;;;;;;;;24.10;49.20;;;;;;1531567;75;1832;-61
2022/09/29 02:41:49;;;;;;;;;;;24.10;49.20;;;;;;1529327;75;876;-59
2022/09/29 02:43:55;;;;;;;;;;;24.20;49.10;;;;;;1538408;75;1738;-60
2022/09/29 02:46:07;;;;;;;;;;;24.20;49.20;;;;;;1537927;75;1795;-61
2022/09/29 02:48:14;;;;;;;;;;;24.20;49.20;;;;;;1524583;75;1561;-61
2022/09/29 02:50:34;;;;;;;;;;;24.20;49.10;;;;;;1538451;75;713;-59
2022/09/29 02:52:44;;;;;;;;;;;24.20;49.20;;;;;;1537523;75;762;-58
2022/09/29 02:54:47;;;;;;;;;;;24.20;49.20;;;;;;1534322;75;1161;-60
2022/09/29 02:57:00;;;;;;;;;;;24.20;49.30;;;;;;1532307;76;732;-59
2022/09/29 02:59:06;;;;;;;;;;;24.20;49.40;;;;;;1537868;75;809;-61
2022/09/29 03:01:08;;;;;;;;;;;24.20;49.50;;;;;;1537488;75;673;-57
2022/09/29 03:03:10;;;;;;;;;;;24.10;49.50;;;;;;1531056;75;1616;-60
2022/09/29 03:05:13;;;;;;;;;;;24.10;49.60;;;;;;1529992;75;1168;-61
2022/09/29 03:07:15;;;;;;;;;;;24.10;49.60;;;;;;1529559;76;755;-57
2022/09/29 03:09:17;;;;;;;;;;;24.10;49.70;;;;;;1534736;75;682;-56
2022/09/29 03:11:18;;;;;;;;;;;24.00;49.70;;;;;;1534418;75;669;-57
2022/09/29 03:13:20;;;;;;;;;;;24.00;49.80;;;;;;1531812;75;676;-59
2022/09/29 03:15:22;;;;;;;;;;;24.00;50.00;;;;;;1532095;75;1944;-59
2022/09/29 03:17:24;;;;;;;;;;;23.90;50.20;;;;;;1525875;75;1692;-59
2022/09/29 03:19:26;;;;;;;;;;;23.90;50.30;;;;;;1534118;75;691;-59
2022/09/29 03:21:28;;;;;;;;;;;23.80;50.30;;;;;;1533539;75;676;-57
2022/09/29 03:23:30;;;;;;;;;;;23.80;50.30;;;;;;1530786;75;764;-56
2022/09/29 03:25:32;;;;;;;;;;;23.80;50.50;;;;;;1530662;75;1154;-59
2022/09/29 03:27:35;;;;;;;;;;;23.80;50.60;;;;;;1524542;75;673;-59
2022/09/29 03:29:37;;;;;;;;;;;23.80;50.50;;;;;;1533111;76;664;-59
2022/09/29 03:31:39;;;;;;;;;;;23.90;50.70;;;;;;1533933;75;1673;-59
2022/09/29 03:33:41;;;;;;;;;;;23.80;50.60;;;;;;1525398;75;862;-59
2022/09/29 03:35:43;;;;;;;;;;;23.90;50.60;;;;;;1534875;75;1959;-57
2022/09/29 03:37:45;;;;;;;;;;;23.90;50.50;;;;;;1529544;75;729;-55
2022/09/29 03:39:47;;;;;;;;;;;24.00;50.40;;;;;;1531927;75;643;-59
2022/09/29 03:41:49;;;;;;;;;;;24.00;50.20;;;;;;1526393;75;672;-58
2022/09/29 03:43:51;;;;;;;;;;;24.00;50.10;;;;;;1524524;75;1570;-57
2022/09/29 03:45:53;;;;;;;;;;;24.00;49.90;;;;;;1530745;75;1126;-57
2022/09/29 03:47:55;;;;;;;;;;;24.10;49.80;;;;;;1530605;75;744;-59
2022/09/29 03:49:57;;;;;;;;;;;24.20;49.60;;;;;;1524322;75;680;-59
2022/09/29 03:51:58;;;;;;;;;;;24.20;49.60;;;;;;1532800;75;713;-59
2022/09/29 03:54:00;;;;;;;;;;;24.20;49.30;;;;;;1527638;75;701;-58
2022/09/29 03:56:02;;;;;;;;;;;24.40;49.20;;;;;;1521204;75;1949;-56
2022/09/29 03:58:04;;;;;;;;;;;24.30;49.10;;;;;;1531265;75;1734;-58
2022/09/29 04:00:06;;;;;;;;;;;24.40;49.00;;;;;;1529361;76;677;-59
2022/09/29 04:02:08;;;;;;;;;;;24.40;48.90;;;;;;1525555;75;677;-59
2022/09/29 04:04:11;;;;;;;;;;;24.40;48.90;;;;;;1526279;76;1150;-56
2022/09/29 04:06:13;;;;;;;;;;;24.30;48.90;;;;;;1539298;75;701;-58
2022/09/29 04:08:15;;;;;;;;;;;24.40;49.00;;;;;;1529548;75;657;-59
2022/09/29 04:10:17;;;;;;;;;;;24.40;49.00;;;;;;1529134;75;754;-59
2022/09/29 04:12:19;;;;;;;;;;;24.40;49.10;;;;;;1530234;75;1474;-60
2022/09/29 04:14:21;;;;;;;;;;;24.40;49.20;;;;;;1527011;76;1163;-56
2022/09/29 04:16:22;;;;;;;;;;;24.40;49.20;;;;;;1523125;75;1944;-56
2022/09/29 04:18:24;;;;;;;;;;;24.50;49.20;;;;;;1519670;75;753;-55
2022/09/29 04:20:26;;;;;;;;;;;24.40;49.00;;;;;;1536639;75;748;-57
2022/09/29 04:22:28;;;;;;;;;;;24.30;49.10;;;;;;1528486;75;760;-55
2022/09/29 04:24:30;;;;;;;;;;;24.40;49.00;;;;;;1529420;75;1147;-54
2022/09/29 04:26:32;;;;;;;;;;;24.40;48.90;;;;;;1533867;75;1554;-59
2022/09/29 04:28:34;;;;;;;;;;;24.50;48.90;;;;;;1525617;76;717;-59
2022/09/29 04:30:36;;;;;;;;;;;24.50;48.80;;;;;;1529464;75;728;-59
2022/09/29 04:32:38;;;;;;;;;;;24.50;48.70;;;;;;1527537;75;706;-59
2022/09/29 04:34:40;;;;;;;;;;;24.50;48.70;;;;;;1525997;75;1183;-59
2022/09/29 04:36:42;;;;;;;;;;;24.50;48.70;;;;;;1529817;75;1939;-58
2022/09/29 04:38:43;;;;;;;;;;;24.50;48.90;;;;;;1533786;75;831;-54
2022/09/29 04:40:46;;;;;;;;;;;24.50;48.90;;;;;;1526424;75;1547;-57
2022/09/29 04:42:48;;;;;;;;;;;24.50;48.90;;;;;;1530739;76;754;-59
2022/09/29 04:44:50;;;;;;;;;;;24.50;48.80;;;;;;1524537;75;1147;-57
2022/09/29 04:46:52;;;;;;;;;;;24.50;48.80;;;;;;1524530;75;784;-61
2022/09/29 04:48:54;;;;;;;;;;;24.50;49.00;;;;;;1531203;75;679;-59
2022/09/29 04:50:55;;;;;;;;;;;24.40;49.20;;;;;;1520930;75;680;-57
2022/09/29 04:52:57;;;;;;;;;;;24.20;49.20;;;;;;1520804;75;905;-58
2022/09/29 04:54:59;;;;;;;;;;;24.20;49.40;;;;;;1521925;75;1581;-57
2022/09/29 04:57:01;;;;;;;;;;;24.10;49.70;;;;;;1530130;75;1945;-58
2022/09/29 04:59:03;;;;;;;;;;;24.20;49.70;;;;;;1537754;75;685;-56
2022/09/29 05:01:06;;;;;;;;;;;24.30;49.40;;;;;;1533424;75;701;-59
2022/09/29 05:03:07;;;;;;;;;;;24.30;49.30;;;;;;1523933;75;785;-60
2022/09/29 05:05:11;;;;;;;;;;;24.40;49.20;;;;;;1527617;76;1152;-61
2022/09/29 05:07:13;;;;;;;;;;;24.40;49.00;;;;;;1529236;75;845;-60
2022/09/29 05:09:15;;;;;;;;;;;24.40;48.90;;;;;;1514957;75;1555;-59
2022/09/29 05:11:17;;;;;;;;;;;24.40;48.80;;;;;;1532518;75;690;-59
2022/09/29 05:13:19;;;;;;;;;;;24.50;48.90;;;;;;1530579;75;711;-61
2022/09/29 05:15:20;;;;;;;;;;;24.50;48.80;;;;;;1529420;75;1152;-61
2022/09/29 05:17:22;;;;;;;;;;;24.40;48.60;;;;;;1533892;77;1947;-60
2022/09/29 05:19:24;;;;;;;;;;;24.50;48.70;;;;;;1532868;75;669;-58
2022/09/29 05:21:26;;;;;;;;;;;24.50;48.70;;;;;;1532081;75;644;-58
2022/09/29 05:23:28;;;;;;;;;;;24.40;48.60;;;;;;1530259;75;1504;-59
2022/09/29 05:25:31;;;;;;;;;;;24.50;48.60;;;;;;1531388;75;1128;-59
2022/09/29 05:27:33;;;;;;;;;;;24.40;48.60;;;;;;1536738;75;743;-60
2022/09/29 05:29:35;;;;;;;;;;;24.20;48.80;;;;;;1536342;75;671;-60
2022/09/29 05:31:37;;;;;;;;;;;24.20;49.20;;;;;;1537804;75;738;-60
2022/09/29 05:33:39;;;;;;;;;;;24.10;49.40;;;;;;1536590;75;686;-60
2022/09/29 05:35:41;;;;;;;;;;;24.00;49.70;;;;;;1529229;75;1174;-59
2022/09/29 05:37:42;;;;;;;;;;;24.10;49.80;;;;;;1532945;75;1949;-58
2022/09/29 05:39:46;;;;;;;;;;;24.20;49.70;;;;;;1533949;75;681;-58
2022/09/29 05:41:48;;;;;;;;;;;24.20;49.50;;;;;;1532411;75;679;-61
2022/09/29 05:43:52;;;;;;;;;;;24.30;49.20;;;;;;1560340;71;224674;-71
2022/09/29 05:45:56;;;;;;;;;;;24.50;48.90;;;;;;1568755;75;679;-71
2022/09/29 05:47:57;;;;;;;;;;;24.40;48.70;;;;;;1568509;75;1775;-65
2022/09/29 05:50:00;;;;;;;;;;;24.30;48.90;;;;;;1563823;75;655;-67
2022/09/29 05:52:01;;;;;;;;;;;24.20;49.00;;;;;;1584854;74;1638;-68
2022/09/29 05:54:03;;;;;;;;;;;24.20;49.40;;;;;;1568684;74;1175;-67
2022/09/29 05:56:09;;;;;;;;;;;24.00;49.40;;;;;;1557596;75;1942;-69
2022/09/29 05:58:11;;;;;;;;;;;24.00;49.50;;;;;;1571001;75;728;-67
2022/09/29 06:00:13;;;;;;;;;;;24.00;49.80;;;;;;1564579;74;735;-68
2022/09/29 06:02:15;;;;;;;;;;;23.90;50.00;;;;;;1567991;75;680;-68
2022/09/29 06:04:17;;;;;;;;;;;24.00;49.90;;;;;;1563895;75;1096;-69
2022/09/29 06:06:20;;;;;;;;;;;24.20;49.50;;;;;;1564855;74;1738;-69
2022/09/29 06:08:22;;;;;;;;;;;24.20;49.10;;;;;;1559985;74;737;-67
2022/09/29 06:10:24;;;;;;;;;;;24.40;48.90;;;;;;1564045;75;790;-68
2022/09/29 06:12:28;;;;;;;;;;;24.50;48.70;;;;;;1567817;75;780;-68
2022/09/29 06:14:30;;;;;;;;;;;24.50;48.40;;;;;;1565424;74;674;-66
2022/09/29 06:16:32;;;;;;;;;;;24.50;48.40;;;;;;1565164;74;1986;-67
2022/09/29 06:18:34;;;;;;;;;;;24.50;48.30;;;;;;1564801;74;1325;-67
2022/09/29 06:20:39;;;;;;;;;;;24.50;48.20;;;;;;1572287;74;756;-68
2022/09/29 06:22:41;;;;;;;;;;;24.60;48.10;;;;;;1562815;75;1106;-67
2022/09/29 06:24:43;;;;;;;;;;;24.60;47.90;;;;;;1553123;75;665;-67
2022/09/29 06:26:45;;;;;;;;;;;24.60;47.80;;;;;;1563976;75;795;-66
2022/09/29 06:28:47;;;;;;;;;;;24.60;47.80;;;;;;1571255;75;864;-67
2022/09/29 06:30:48;;;;;;;;;;;24.70;47.80;;;;;;1566129;75;618;-67
2022/09/29 06:32:50;;;;;;;;;;;24.60;47.70;;;;;;1572143;74;1557;-66
2022/09/29 06:39:32;;;;;;;;;;;24.60;47.60;;;;;;1561083;75;1638;-67
2022/09/29 06:41:34;;;;;;;;;;;24.50;47.70;;;;;;1572288;74;738;-68
2022/09/29 06:43:36;;;;;;;;;;;24.50;47.70;;;;;;1568146;74;1139;-67
2022/09/29 06:45:38;;;;;;;;;;;24.50;47.70;;;;;;1561989;74;779;-69
2022/09/29 06:47:41;;;;;;;;;;;24.50;47.80;;;;;;1565684;75;1554;-67
2022/09/29 06:49:43;;;;;;;;;;;24.50;47.80;;;;;;1566480;75;767;-67
2022/09/29 06:51:45;;;;;;;;;;;24.50;47.80;;;;;;1579323;74;784;-67
2022/09/29 06:53:47;;;;;;;;;;;24.50;47.80;;;;;;1571660;74;1166;-67
2022/09/29 06:55:52;;;;;;;;;;;24.50;47.70;;;;;;1567232;75;626;-67
2022/09/29 06:57:54;;;;;;;;;;;24.50;47.70;;;;;;1565298;75;1915;-68
2022/09/29 06:59:56;;;;;;;;;;;24.50;47.70;;;;;;1567861;74;807;-66
2022/09/29 07:01:58;;;;;;;;;;;24.40;47.70;;;;;;1566928;74;1344;-68
2022/09/29 07:04:01;;;;;;;;;;;24.50;47.80;;;;;;1575071;74;1127;-67
2022/09/29 07:06:06;;;;;;;;;;;24.40;47.60;;;;;;1572818;74;707;-66
2022/09/29 07:08:07;;;;;;;;;;;24.50;47.60;;;;;;1569368;74;615;-66
2022/09/29 07:10:09;;;;;;;;;;;24.50;47.60;;;;;;1566353;75;696;-69
2022/09/29 07:12:11;;;;;;;;;;;24.50;47.60;;;;;;1573784;74;793;-67
2022/09/29 07:14:14;;;;;;;;;;;24.50;47.70;;;;;;1562631;74;1121;-66
2022/09/29 07:16:15;;;;;;;;;;;24.50;47.60;;;;;;1565782;74;1700;-66
2022/09/29 07:18:17;;;;;;;;;;;24.50;47.60;;;;;;1565276;75;1936;-67
2022/09/29 07:20:19;;;;;;;;;;;24.50;47.60;;;;;;1555464;75;712;-64
2022/09/29 07:22:22;;;;;;;;;;;24.40;47.60;;;;;;1557316;75;787;-67
2022/09/29 07:24:24;;;;;;;;;;;24.50;47.60;;;;;;1561446;74;1060;-66
2022/09/29 07:26:26;;;;;;;;;;;24.50;47.60;;;;;;1556711;75;721;-67
2022/09/29 07:28:28;;;;;;;;;;;24.50;47.50;;;;;;1566416;74;713;-68
2022/09/29 07:30:30;;;;;;;;;;;24.50;47.50;;;;;;1563768;75;1553;-66
2022/09/29 07:32:32;;;;;;;;;;;24.50;47.50;;;;;;1563662;74;1192;-67
2022/09/29 07:34:34;;;;;;;;;;;24.60;47.40;;;;;;1569719;74;707;-67
2022/09/29 07:36:37;;;;;;;;;;;24.60;47.40;;;;;;1557395;74;1938;-67
2022/09/29 07:38:39;;;;;;;;;;;24.60;47.40;;;;;;1571717;74;796;-66
2022/09/29 07:40:41;;;;;;;;;;;24.50;47.40;;;;;;1572391;75;800;-67
2022/09/29 07:42:43;;;;;;;;;;;24.50;47.40;;;;;;1559822;74;1146;-67
2022/09/29 07:44:45;;;;;;;;;;;24.50;47.40;;;;;;1560738;74;1517;-67
2022/09/29 07:46:48;;;;;;;;;;;24.50;47.40;;;;;;1557972;74;682;-67
2022/09/29 07:48:50;;;;;;;;;;;24.50;47.40;;;;;;1576205;74;623;-66
2022/09/29 07:50:52;;;;;;;;;;;24.50;47.30;;;;;;1568482;74;835;-65
2022/09/29 07:52:54;;;;;;;;;;;24.50;47.30;;;;;;1568374;74;1104;-67
2022/09/29 07:54:56;;;;;;;;;;;24.50;47.30;;;;;;1566231;74;724;-65
2022/09/29 07:56:59;;;;;;;;;;;24.50;47.30;;;;;;1570447;75;1917;-66
2022/09/29 07:59:02;;;;;;;;;;;24.50;47.30;;;;;;1568433;74;677;-68
2022/09/29 08:01:05;;;;;;;;;;;24.50;47.20;;;;;;1563717;75;1099;-67
2022/09/29 08:03:07;;;;;;;;;;;24.50;47.20;;;;;;1562760;75;1109;-67
2022/09/29 08:05:09;;;;;;;;;;;24.50;47.20;;;;;;1556165;74;578;-67
2022/09/29 08:07:11;;;;;;;;;;;24.50;47.20;;;;;;1562356;75;748;-66
2022/09/29 08:09:13;;;;;;;;;;;24.60;47.20;;;;;;1551919;75;729;-66
2022/09/29 08:11:16;;;;;;;;;;;24.50;47.30;;;;;;1558397;75;1570;-67
2022/09/29 08:13:18;;;;;;;;;;;24.50;47.30;;;;;;1561471;74;1139;-67
2022/09/29 08:15:20;;;;;;;;;;;24.50;47.40;;;;;;1562545;74;715;-67
2022/09/29 08:17:22;;;;;;;;;;;24.40;47.30;;;;;;1563890;75;1904;-66
2022/09/29 08:19:25;;;;;;;;;;;24.40;47.40;;;;;;1564672;74;755;-66
2022/09/29 08:21:28;;;;;;;;;;;24.40;47.40;;;;;;1571076;75;1073;-66
2022/09/29 08:23:31;;;;;;;;;;;24.40;47.60;;;;;;1571743;74;1131;-66
2022/09/29 08:25:34;;;;;;;;;;;24.40;47.60;;;;;;1566516;74;1304;-66
2022/09/29 08:27:36;;;;;;;;;;;24.40;47.50;;;;;;1558151;74;883;-66
2022/09/29 08:29:38;;;;;;;;;;;24.40;47.40;;;;;;1564835;75;792;-66
2022/09/29 08:31:39;;;;;;;;;;;24.50;47.30;;;;;;1561428;75;727;-66
2022/09/29 08:33:41;;;;;;;;;;;24.50;47.30;;;;;;1565969;74;1175;-66
2022/09/29 08:35:43;;;;;;;;;;;24.50;47.20;;;;;;1560431;75;726;-66
2022/09/29 08:37:45;;;;;;;;;;;24.50;47.20;;;;;;1552234;75;1914;-67
2022/09/29 08:39:47;;;;;;;;;;;24.50;47.10;;;;;;1568055;74;1548;-66
2022/09/29 08:41:53;;;;;;;;;;;24.50;47.00;;;;;;1572043;75;614;-67
2022/09/29 08:43:57;;;;;;;;;;;24.50;47.00;;;;;;1550739;75;1125;-67
2022/09/29 08:46:00;;;;;;;;;;;24.50;47.00;;;;;;1567151;75;1895;-65
2022/09/29 08:48:10;;;;;;;;;;;24.50;47.00;;;;;;1573999;74;792;-66
2022/09/29 08:50:30;;;;;;;;;;;24.50;47.00;;;;;;1569352;74;1802;-66
2022/09/29 08:52:33;;;;;;;;;;;24.60;47.00;;;;;;1572325;74;1136;-66
2022/09/29 08:54:40;;;;;;;;;;;24.50;47.10;;;;;;1563485;74;1563;-66
2022/09/29 08:56:42;;;;;;;;;;;24.50;47.10;;;;;;1564015;74;1012;-67
2022/09/29 08:58:44;;;;;;;;;;;24.50;47.00;;;;;;1570226;75;1930;-65
2022/09/29 09:00:53;;;;;;;;;;;24.50;47.00;;;;;;1569239;74;724;-67
2022/09/29 09:02:56;;;;;;;;;;;24.50;46.90;;;;;;1567125;74;1147;-67
2022/09/29 09:05:06;;;;;;;;;;;24.60;46.80;;;;;;1574084;74;1904;-66
2022/09/29 09:07:16;;;;;;;;;;;24.50;46.80;;;;;;1566974;75;819;-66
2022/09/29 09:09:19;;;;;;;;;;;24.50;46.90;;;;;;1560953;74;684;-66
2022/09/29 09:11:23;;;;;;;;;;;24.60;46.90;;;;;;1569812;74;795;-68
2022/09/29 09:13:38;;;;;;;;;;;24.50;46.90;;;;;;1571790;74;1508;-68
2022/09/29 09:15:45;;;;;;;;;;;24.60;46.90;;;;;;1566907;74;1766;-68
2022/09/29 09:17:55;;;;;;;;;;;24.50;46.90;;;;;;1572172;74;1930;-67
2022/09/29 09:20:04;;;;;;;;;;;24.50;46.90;;;;;;1556288;75;2096;-66
2022/09/29 09:22:13;;;;;;;;;;;24.50;46.90;;;;;;1559703;74;1446;-66
2022/09/29 09:24:28;;;;;;;;;;;24.50;46.80;;;;;;1568470;74;1050;-66
2022/09/29 09:26:35;;;;;;;;;;;24.50;46.80;;;;;;1564516;74;686;-67
2022/09/29 09:28:37;;;;;;;;;;;24.50;46.80;;;;;;1561224;74;788;-67
2022/09/29 09:30:41;;;;;;;;;;;24.50;46.90;;;;;;1556863;75;792;-67
2022/09/29 09:32:56;;;;;;;;;;;24.50;46.80;;;;;;1564580;74;1132;-68
2022/09/29 09:34:59;;;;;;;;;;;24.60;46.80;;;;;;1562978;75;622;-66
2022/09/29 09:37:05;;;;;;;;;;;24.50;46.80;;;;;;1563718;74;1532;-68
2022/09/29 09:39:13;;;;;;;;;;;24.50;46.80;;;;;;1563669;74;1933;-68
2022/09/29 09:41:17;;;;;;;;;;;24.50;46.90;;;;;;1565539;74;685;-67
2022/09/29 09:43:32;;;;;;;;;;;24.50;46.90;;;;;;1563679;74;1171;-67
2022/09/29 09:45:39;;;;;;;;;;;24.50;46.90;;;;;;1555037;74;817;-67
2022/09/29 09:47:42;;;;;;;;;;;24.50;46.90;;;;;;1564380;74;768;-66
2022/09/29 09:49:45;;;;;;;;;;;24.50;46.90;;;;;;1572170;74;1571;-67
2022/09/29 09:51:57;;;;;;;;;;;24.50;46.80;;;;;;1562180;74;766;-66
2022/09/29 09:54:01;;;;;;;;;;;24.50;46.90;;;;;;1567888;75;1127;-66
2022/09/29 09:56:07;;;;;;;;;;;24.60;46.90;;;;;;1569202;75;720;-67
2022/09/29 09:58:27;;;;;;;;;;;24.50;46.90;;;;;;1557550;75;1949;-67
2022/09/29 10:00:31;;;;;;;;;;;24.50;46.90;;;;;;1572074;74;721;-67
2022/09/29 10:02:33;;;;;;;;;;;24.50;47.00;;;;;;1565336;74;1158;-65
2022/09/29 10:04:35;;;;;;;;;;;24.50;46.90;;;;;;1562528;74;1587;-67
2022/09/29 10:06:36;;;;;;;;;;;24.50;46.80;;;;;;1564027;75;793;-67
2022/09/29 10:08:39;;;;;;;;;;;24.50;46.80;;;;;;1561005;75;701;-67
2022/09/29 10:10:41;;;;;;;;;;;24.50;46.80;;;;;;1567256;74;936;-67
2022/09/29 10:12:44;;;;;;;;;;;24.50;46.80;;;;;;1570171;74;1138;-67
2022/09/29 10:14:50;;;;;;;;;;;24.60;46.80;;;;;;1571558;75;749;-68
2022/09/29 10:17:04;;;;;;;;;;;24.60;46.70;;;;;;1565687;74;812;-67
2022/09/29 10:19:06;;;;;;;;;;;24.50;46.80;;;;;;1558404;74;1929;-67
2022/09/29 10:21:28;;;;;;;;;;;24.50;46.80;;;;;;1556611;74;694;-67
2022/09/29 10:23:25;;;;;;;;;;;24.50;46.80;;;;;;1552726;74;1514;-66
2022/09/29 10:25:27;;;;;;;;;;;24.50;46.80;;;;;;1573098;75;763;-66
2022/09/29 10:27:29;;;;;;;;;;;24.50;46.70;;;;;;1564586;74;714;-67
2022/09/29 10:29:33;;;;;;;;;;;24.50;46.60;;;;;;1567110;74;790;-66
2022/09/29 10:31:35;;;;;;;;;;;24.50;46.60;;;;;;1561999;74;1602;-68
2022/09/29 10:33:37;;;;;;;;;;;24.60;46.60;;;;;;1568720;74;1118;-68
2022/09/29 10:35:40;;;;;;;;;;;24.50;46.50;;;;;;1553843;75;731;-69
2022/09/29 10:37:42;;;;;;;;;;;24.50;46.60;;;;;;1566296;74;1932;-68
2022/09/29 10:39:47;;;;;;;;;;;24.60;46.50;;;;;;1555147;75;699;-69
2022/09/29 10:41:52;;;;;;;;;;;24.50;46.60;;;;;;1563602;75;1602;-69
2022/09/29 10:43:53;;;;;;;;;;;24.50;46.50;;;;;;1558744;74;1603;-67
2022/09/29 10:45:57;;;;;;;;;;;24.50;46.60;;;;;;1561578;74;1530;-68
2022/09/29 10:48:00;;;;;;;;;;;24.50;46.60;;;;;;1561713;74;1701;-69
2022/09/29 10:50:15;;;;;;;;;;;24.50;46.60;;;;;;1561310;75;761;-69
2022/09/29 10:52:22;;;;;;;;;;;24.50;46.60;;;;;;1561991;75;817;-68
2022/09/29 10:54:27;;;;;;;;;;;24.50;46.70;;;;;;1568075;74;1042;-67
2022/09/29 10:56:29;;;;;;;;;;;24.50;46.70;;;;;;1564285;75;700;-67
2022/09/29 10:58:33;;;;;;;;;;;24.50;46.70;;;;;;1565626;75;1924;-68
2022/09/29 11:00:35;;;;;;;;;;;24.50;46.70;;;;;;1574056;75;1574;-68
2022/09/29 11:02:37;;;;;;;;;;;24.60;46.70;;;;;;1566860;74;1139;-68
2022/09/29 11:04:39;;;;;;;;;;;24.60;46.80;;;;;;1566675;74;721;-68
2022/09/29 11:06:41;;;;;;;;;;;24.50;46.70;;;;;;1566428;75;732;-68
2022/09/29 11:09:00;;;;;;;;;;;24.60;46.70;;;;;;1568349;75;766;-68
2022/09/29 11:11:06;;;;;;;;;;;24.50;46.70;;;;;;1564368;74;754;-68
2022/09/29 11:13:17;;;;;;;;;;;24.60;46.70;;;;;;1571184;74;1172;-67
2022/09/29 11:15:23;;;;;;;;;;;24.50;46.70;;;;;;1568380;74;1900;-69
2022/09/29 11:17:26;;;;;;;;;;;24.50;46.70;;;;;;1562716;74;809;-68
2022/09/29 11:19:29;;;;;;;;;;;24.50;46.70;;;;;;1571782;74;1973;-70
2022/09/29 11:21:32;;;;;;;;;;;24.60;46.60;;;;;;1569756;74;748;-68
2022/09/29 11:23:35;;;;;;;;;;;24.50;46.70;;;;;;1568441;74;1113;-68
2022/09/29 11:25:38;;;;;;;;;;;24.50;46.70;;;;;;1567401;74;716;-68
2022/09/29 11:27:57;;;;;;;;;;;24.50;46.70;;;;;;1563666;75;1820;-67
2022/09/29 11:30:01;;;;;;;;;;;24.50;46.60;;;;;;1557462;74;759;-69
2022/09/29 11:32:07;;;;;;;;;;;24.50;46.60;;;;;;1566556;75;772;-68
2022/09/29 11:34:16;;;;;;;;;;;24.50;46.60;;;;;;1566441;74;1133;-68
2022/09/29 11:36:38;;;;;;;;;;;24.50;46.70;;;;;;1564031;75;1898;-68
2022/09/29 11:38:47;;;;;;;;;;;24.50;46.70;;;;;;1553408;74;1926;-68
2022/09/29 11:40:51;;;;;;;;;;;24.50;46.70;;;;;;1574147;74;748;-69
2022/09/29 11:43:12;;;;;;;;;;;24.50;46.70;;;;;;1566905;74;1886;-67
2022/09/29 11:45:17;;;;;;;;;;;24.50;46.80;;;;;;1564844;74;681;-65
2022/09/29 11:47:31;;;;;;;;;;;24.50;46.70;;;;;;1566794;75;1679;-66
2022/09/29 11:49:41;;;;;;;;;;;24.50;46.60;;;;;;1569326;74;2081;-65
2022/09/29 11:51:53;;;;;;;;;;;24.50;46.70;;;;;;1566814;75;765;-65
2022/09/29 11:53:56;;;;;;;;;;;24.50;46.70;;;;;;1567736;74;1207;-65
2022/09/29 11:56:07;;;;;;;;;;;24.50;46.60;;;;;;1567951;74;1545;-65
2022/09/29 11:58:13;;;;;;;;;;;24.60;46.60;;;;;;1559058;75;1987;-65
2022/09/29 12:00:15;;;;;;;;;;;24.50;46.60;;;;;;1576827;75;747;-64
2022/09/29 12:02:25;;;;;;;;;;;24.50;46.70;;;;;;1567942;75;754;-65
2022/09/29 12:04:35;;;;;;;;;;;24.50;46.70;;;;;;1567769;75;1794;-65
2022/09/29 12:06:47;;;;;;;;;;;24.40;46.70;;;;;;1571533;75;721;-67
2022/09/29 12:08:55;;;;;;;;;;;24.50;46.80;;;;;;1569031;74;1138;-66
2022/09/29 12:10:58;;;;;;;;;;;24.40;46.70;;;;;;1558817;75;1606;-66
2022/09/29 12:13:05;;;;;;;;;;;24.50;46.60;;;;;;1565165;74;1994;-66
2022/09/29 12:15:25;;;;;;;;;;;24.50;46.60;;;;;;1574288;75;641;-66
2022/09/29 12:17:30;;;;;;;;;;;24.50;46.50;;;;;;1562646;75;676;-65
2022/09/29 12:19:33;;;;;;;;;;;24.60;46.50;;;;;;1561750;75;1927;-67
2022/09/29 12:21:36;;;;;;;;;;;24.50;46.50;;;;;;1553719;75;769;-66
2022/09/29 12:23:38;;;;;;;;;;;24.60;46.50;;;;;;1579749;74;1170;-66